Time;durP1;ratioP1;P1;durP2;ratioP2;P2;SDS_P1;SDS_P2;PMS_P1;PMS_P2;Temp;Humidity;BMP_temperature;BMP_pressure;BME280_temperature;BME280_humidity;BME280_pressure;Samples;Min_cycle;Max_cycle;Signal;HPM_P1;HPM_P2
2022/05/01 00:04:58;;;;;;;25.88;13.83;;;;;;;;;;4292346;82;28521;-73
2022/05/01 00:11:00;;;;;;;20.68;11.80;;;;;;;;;;4286138;82;28496;-73
2022/05/01 00:17:01;;;;;;;21.17;11.57;;;;;;;;;;4282417;82;28595;-73
2022/05/01 00:23:02;;;;;;;22.05;12.50;;;;;;;;;;4299205;82;28542;-73
2022/05/01 00:29:06;;;;;;;26.25;13.32;;;;;;;;;;4296832;81;28551;-73
2022/05/01 00:41:32;;;;;;;27.80;14.10;;;;;;;;;;4303840;81;28508;-73
2022/05/01 00:47:33;;;;;;;27.07;14.47;;;;;;;;;;4298944;81;28523;-73
2022/05/01 00:53:34;;;;;;;28.12;13.35;;;;;;;;;;4299565;81;28503;-73
2022/05/01 00:59:36;;;;;;;26.87;12.90;;;;;;;;;;4303391;81;28516;-73
2022/05/01 01:05:37;;;;;;;21.62;12.55;;;;;;;;;;4298994;81;28511;-73
2022/05/01 01:11:39;;;;;;;22.82;12.58;;;;;;;;;;4294235;81;28541;-74
2022/05/01 01:17:41;;;;;;;24.67;12.68;;;;;;;;;;4296946;81;28520;-73
2022/05/01 01:23:43;;;;;;;23.02;12.25;;;;;;;;;;4297739;81;28538;-74
2022/05/01 01:36:05;;;;;;;25.17;14.10;;;;;;;;;;4292773;81;28511;-74
2022/05/01 01:42:07;;;;;;;25.40;12.82;;;;;;;;;;4301747;81;28511;-74
2022/05/01 01:48:10;;;;;;;23.98;12.65;;;;;;;;;;4298882;81;28448;-74
2022/05/01 01:54:11;;;;;;;21.30;12.45;;;;;;;;;;4300103;81;28703;-74
2022/05/01 02:00:12;;;;;;;22.75;12.73;;;;;;;;;;4318894;81;28519;-75
2022/05/01 02:06:14;;;;;;;22.25;12.80;;;;;;;;;;4303715;81;28484;-75
2022/05/01 02:12:15;;;;;;;24.02;12.58;;;;;;;;;;4299283;82;28575;-76
2022/05/01 02:18:16;;;;;;;21.10;11.12;;;;;;;;;;4299352;81;28574;-76
2022/05/01 02:24:17;;;;;;;19.98;11.63;;;;;;;;;;4300694;81;28512;-76
2022/05/01 02:30:18;;;;;;;24.75;12.93;;;;;;;;;;4290320;82;28461;-75
2022/05/01 02:36:19;;;;;;;26.85;12.60;;;;;;;;;;4270165;82;28607;-75
2022/05/01 02:42:20;;;;;;;24.85;12.85;;;;;;;;;;4280944;82;28524;-75
2022/05/01 02:48:21;;;;;;;27.52;13.18;;;;;;;;;;4281334;83;28516;-75
2022/05/01 02:54:22;;;;;;;22.60;12.60;;;;;;;;;;4279574;82;28525;-75
2022/05/01 03:00:25;;;;;;;25.55;12.50;;;;;;;;;;4280853;82;28528;-75
2022/05/01 03:06:25;;;;;;;21.60;11.38;;;;;;;;;;4288846;82;28523;-75
2022/05/01 03:12:26;;;;;;;22.45;11.43;;;;;;;;;;4282042;82;28551;-74
2022/05/01 03:24:47;;;;;;;22.35;12.28;;;;;;;;;;4281194;82;28520;-74
2022/05/01 03:30:47;;;;;;;20.90;11.73;;;;;;;;;;4290640;82;28500;-72
2022/05/01 03:36:48;;;;;;;23.73;12.63;;;;;;;;;;4288873;82;28479;-73
2022/05/01 03:42:49;;;;;;;23.35;12.05;;;;;;;;;;4291200;82;28512;-72
2022/05/01 03:48:50;;;;;;;21.62;10.65;;;;;;;;;;4288882;82;28524;-73
2022/05/01 03:54:51;;;;;;;23.77;11.50;;;;;;;;;;4289838;81;28513;-73
2022/05/01 04:00:52;;;;;;;19.40;10.82;;;;;;;;;;4288998;81;28561;-73
2022/05/01 04:06:53;;;;;;;23.45;12.07;;;;;;;;;;4297366;81;28601;-74
2022/05/01 04:12:54;;;;;;;20.02;11.50;;;;;;;;;;4292066;82;28522;-73
2022/05/01 04:18:54;;;;;;;22.40;12.07;;;;;;;;;;4285674;82;28539;-73
2022/05/01 04:24:55;;;;;;;23.38;13.32;;;;;;;;;;4289429;82;28488;-74
2022/05/01 04:30:56;;;;;;;27.22;14.53;;;;;;;;;;4286845;81;28510;-73
2022/05/01 04:36:58;;;;;;;25.08;14.28;;;;;;;;;;4284114;82;28490;-74
2022/05/01 04:43:06;;;;;;;24.25;14.10;;;;;;;;;;4288208;82;28457;-74
2022/05/01 04:49:07;;;;;;;23.75;12.80;;;;;;;;;;4288277;82;28512;-74
2022/05/01 04:55:08;;;;;;;23.45;13.40;;;;;;;;;;4289656;82;28508;-74
2022/05/01 05:01:09;;;;;;;24.43;13.50;;;;;;;;;;4286619;82;28533;-73
2022/05/01 05:07:10;;;;;;;30.15;15.65;;;;;;;;;;4285888;81;28518;-73
2022/05/01 05:13:11;;;;;;;25.27;14.65;;;;;;;;;;4283809;81;28507;-72
2022/05/01 05:19:12;;;;;;;27.87;15.23;;;;;;;;;;4289036;81;28477;-73
2022/05/01 05:25:15;;;;;;;29.48;16.42;;;;;;;;;;4285916;81;28483;-76
2022/05/01 05:31:16;;;;;;;32.78;17.73;;;;;;;;;;4287386;81;28550;-74
2022/05/01 05:37:18;;;;;;;33.63;16.80;;;;;;;;;;4282272;82;28558;-77
2022/05/01 05:43:18;;;;;;;32.48;18.02;;;;;;;;;;4284057;81;28502;-73
2022/05/01 05:49:19;;;;;;;35.73;18.10;;;;;;;;;;4166466;83;28552;-74
2022/05/01 05:55:20;;;;;;;33.73;17.42;;;;;;;;;;4216516;83;28540;-74
2022/05/01 06:01:21;;;;;;;29.25;16.73;;;;;;;;;;4226226;83;28579;-75
2022/05/01 06:07:22;;;;;;;35.80;18.50;;;;;;;;;;4292460;81;28537;-75
2022/05/01 06:13:23;;;;;;;30.62;17.67;;;;;;;;;;4281100;82;28483;-73
2022/05/01 06:19:24;;;;;;;28.42;17.05;;;;;;;;;;4280207;81;28598;-73
2022/05/01 06:25:25;;;;;;;29.57;17.87;;;;;;;;;;4280021;81;28546;-73
2022/05/01 06:31:26;;;;;;;29.98;17.23;;;;;;;;;;4263592;82;28531;-74
2022/05/01 06:37:28;;;;;;;30.88;18.32;;;;;;;;;;4269240;82;28587;-73
2022/05/01 06:43:30;;;;;;;31.10;18.15;;;;;;;;;;4267551;82;28508;-74
2022/05/01 06:49:30;;;;;;;34.13;18.92;;;;;;;;;;4260812;82;28627;-75
2022/05/01 06:55:31;;;;;;;35.00;19.12;;;;;;;;;;4260826;82;28554;-72
2022/05/01 07:01:32;;;;;;;34.27;20.43;;;;;;;;;;4274114;82;28482;-74
2022/05/01 07:07:33;;;;;;;36.38;20.15;;;;;;;;;;4265315;82;28612;-74
2022/05/01 07:13:36;;;;;;;35.43;19.50;;;;;;;;;;4268278;82;28618;-74
2022/05/01 07:19:36;;;;;;;31.80;19.92;;;;;;;;;;4282270;81;28496;-74
2022/05/01 07:25:37;;;;;;;33.95;19.98;;;;;;;;;;4286901;81;28531;-75
2022/05/01 07:31:39;;;;;;;35.38;20.45;;;;;;;;;;4286606;81;28521;-72
2022/05/01 07:37:40;;;;;;;34.25;19.90;;;;;;;;;;4285702;82;28449;-71
2022/05/01 07:43:40;;;;;;;35.08;20.70;;;;;;;;;;4286747;81;28582;-73
2022/05/01 07:49:41;;;;;;;28.55;18.48;;;;;;;;;;4198066;83;28573;-75
2022/05/01 07:55:42;;;;;;;26.62;17.45;;;;;;;;;;4279507;82;28475;-77
2022/05/01 08:01:43;;;;;;;28.35;17.45;;;;;;;;;;4245988;82;28527;-77
2022/05/01 08:07:44;;;;;;;28.30;17.42;;;;;;;;;;4283027;82;28519;-77
2022/05/01 08:13:45;;;;;;;24.52;15.85;;;;;;;;;;4282740;82;28553;-77
2022/05/01 08:26:10;;;;;;;21.85;15.65;;;;;;;;;;4277859;81;28480;-78
2022/05/01 08:32:11;;;;;;;24.52;15.40;;;;;;;;;;4295151;81;28538;-77
2022/05/01 08:38:12;;;;;;;25.30;14.80;;;;;;;;;;4296046;81;29209;-77
2022/05/01 08:44:14;;;;;;;19.42;12.37;;;;;;;;;;4294825;81;28527;-76
2022/05/01 08:50:16;;;;;;;18.57;11.03;;;;;;;;;;4297866;81;28542;-76
2022/05/01 08:56:18;;;;;;;13.00;9.43;;;;;;;;;;4292344;81;28538;-76
2022/05/01 09:02:19;;;;;;;14.03;9.45;;;;;;;;;;4292701;81;28534;-76
2022/05/01 09:08:22;;;;;;;12.60;8.03;;;;;;;;;;4300024;81;28491;-76
2022/05/01 09:14:24;;;;;;;11.55;7.47;;;;;;;;;;4295107;81;28470;-77
2022/05/01 09:20:25;;;;;;;10.75;6.17;;;;;;;;;;4298293;81;28559;-77
2022/05/01 09:26:28;;;;;;;10.28;5.60;;;;;;;;;;4302648;81;28512;-77
2022/05/01 09:32:36;;;;;;;9.80;7.20;;;;;;;;;;4286303;81;28538;-77
2022/05/01 09:38:37;;;;;;;8.85;6.25;;;;;;;;;;4283898;81;28551;-77
2022/05/01 09:44:38;;;;;;;11.30;5.83;;;;;;;;;;4290222;81;28532;-76
2022/05/01 09:50:42;;;;;;;7.75;5.25;;;;;;;;;;4287346;81;28577;-76
2022/05/01 09:56:51;;;;;;;7.70;5.50;;;;;;;;;;4291439;81;28496;-77
2022/05/01 10:02:52;;;;;;;8.05;5.00;;;;;;;;;;4291521;81;28562;-77
2022/05/01 10:08:53;;;;;;;7.83;5.45;;;;;;;;;;4292154;81;28520;-76
2022/05/01 10:14:54;;;;;;;7.20;4.95;;;;;;;;;;4277075;81;28503;-76
2022/05/01 10:20:55;;;;;;;7.40;4.97;;;;;;;;;;4287976;81;28547;-76
2022/05/01 10:26:57;;;;;;;5.87;4.45;;;;;;;;;;4285442;81;28609;-75
2022/05/01 10:33:09;;;;;;;7.67;5.25;;;;;;;;;;4288415;81;28547;-76
2022/05/01 10:39:10;;;;;;;8.93;5.17;;;;;;;;;;4286411;81;28523;-75
2022/05/01 10:45:26;;;;;;;10.78;5.83;;;;;;;;;;4290910;82;28526;-76
2022/05/01 10:51:35;;;;;;;8.70;5.83;;;;;;;;;;4283259;81;33650;-75
2022/05/01 10:57:36;;;;;;;8.75;5.92;;;;;;;;;;4284388;81;28543;-75
2022/05/01 11:03:40;;;;;;;9.73;7.03;;;;;;;;;;4290429;81;28542;-75
2022/05/01 11:09:41;;;;;;;9.88;6.33;;;;;;;;;;4281863;81;28490;-74
2022/05/01 11:15:47;;;;;;;8.90;6.28;;;;;;;;;;4289693;81;28510;-77
2022/05/01 11:21:49;;;;;;;11.73;7.83;;;;;;;;;;4295616;81;28605;-75
2022/05/01 11:27:51;;;;;;;9.68;6.40;;;;;;;;;;4292034;81;28596;-76
2022/05/01 11:34:10;;;;;;;9.13;6.47;;;;;;;;;;4297452;81;28560;-75
2022/05/01 11:40:15;;;;;;;12.20;8.90;;;;;;;;;;4300723;81;28962;-75
2022/05/01 11:46:17;;;;;;;11.68;8.40;;;;;;;;;;4298887;81;28535;-76
2022/05/01 11:52:18;;;;;;;9.88;7.08;;;;;;;;;;4298079;82;28500;-74
2022/05/01 12:04:40;;;;;;;8.58;6.60;;;;;;;;;;4301156;81;29091;-75
2022/05/01 12:10:41;;;;;;;9.03;6.15;;;;;;;;;;4301482;81;28545;-76
2022/05/01 12:16:43;;;;;;;8.18;6.47;;;;;;;;;;4299053;82;28532;-76
2022/05/01 12:22:44;;;;;;;9.18;5.75;;;;;;;;;;4295083;81;28601;-74
2022/05/01 12:28:45;;;;;;;7.53;5.85;;;;;;;;;;4294021;81;28536;-77
2022/05/01 12:34:48;;;;;;;8.63;5.50;;;;;;;;;;4292994;81;28506;-76
2022/05/01 12:47:10;;;;;;;6.97;5.08;;;;;;;;;;4288474;83;28545;-78
2022/05/01 12:53:21;;;;;;;6.35;5.17;;;;;;;;;;4290329;81;28554;-77
2022/05/01 12:59:25;;;;;;;6.37;4.80;;;;;;;;;;4288229;82;28500;-76
2022/05/01 13:05:27;;;;;;;8.03;5.50;;;;;;;;;;4287903;82;28547;-75
2022/05/01 13:11:30;;;;;;;7.90;5.78;;;;;;;;;;4287204;81;28547;-74
2022/05/01 13:17:31;;;;;;;8.15;5.62;;;;;;;;;;4286840;81;28586;-75
2022/05/01 13:23:32;;;;;;;6.12;4.85;;;;;;;;;;4288695;81;28519;-74
2022/05/01 13:29:34;;;;;;;7.05;4.55;;;;;;;;;;4281615;82;28535;-72
2022/05/01 13:35:36;;;;;;;7.58;5.03;;;;;;;;;;4286714;81;28539;-72
2022/05/01 13:47:57;;;;;;;7.72;5.47;;;;;;;;;;4296892;81;28543;-77
2022/05/01 13:53:58;;;;;;;8.18;5.15;;;;;;;;;;4294311;81;28504;-74
2022/05/01 13:59:59;;;;;;;5.95;4.80;;;;;;;;;;4299019;81;28550;-76
2022/05/01 14:06:00;;;;;;;12.15;5.80;;;;;;;;;;4282593;81;28555;-82
2022/05/01 14:12:01;;;;;;;7.53;5.58;;;;;;;;;;4294845;81;28577;-81
2022/05/01 14:18:03;;;;;;;7.05;5.60;;;;;;;;;;4295077;81;28522;-78
2022/05/01 14:24:05;;;;;;;7.05;5.60;;;;;;;;;;4288858;81;28516;-75
2022/05/01 14:30:07;;;;;;;8.95;5.25;;;;;;;;;;4296586;81;28555;-75
2022/05/01 14:36:08;;;;;;;7.15;5.30;;;;;;;;;;4290393;81;28507;-75
2022/05/01 14:42:13;;;;;;;6.05;4.85;;;;;;;;;;4283946;81;28541;-75
2022/05/01 14:48:15;;;;;;;6.83;4.83;;;;;;;;;;4279794;81;28523;-75
2022/05/01 14:54:15;;;;;;;6.67;5.00;;;;;;;;;;4272021;81;28494;-74
2022/05/01 15:06:36;;;;;;;7.35;4.92;;;;;;;;;;4300447;81;28535;-76
2022/05/01 15:12:37;;;;;;;7.05;5.00;;;;;;;;;;4297835;81;28541;-75
2022/05/01 15:18:45;;;;;;;6.00;4.67;;;;;;;;;;4292524;81;28545;-76
2022/05/01 15:24:51;;;;;;;7.10;4.67;;;;;;;;;;4296123;81;28536;-74
2022/05/01 15:30:53;;;;;;;6.90;4.47;;;;;;;;;;4293809;81;28516;-75
2022/05/01 15:36:56;;;;;;;6.72;4.70;;;;;;;;;;4296019;81;28482;-74
2022/05/01 15:42:57;;;;;;;7.87;5.28;;;;;;;;;;4297020;81;28511;-74
2022/05/01 15:55:28;;;;;;;6.33;4.35;;;;;;;;;;4297189;81;28569;-74
2022/05/01 16:01:27;;;;;;;5.47;4.40;;;;;;;;;;4287716;81;29098;-75
2022/05/01 16:07:33;;;;;;;5.62;4.25;;;;;;;;;;4294289;81;28488;-75
2022/05/01 16:13:41;;;;;;;5.97;4.37;;;;;;;;;;4296144;81;28515;-75
2022/05/01 16:19:48;;;;;;;7.40;4.90;;;;;;;;;;4294551;81;28554;-75
2022/05/01 16:25:49;;;;;;;7.42;4.72;;;;;;;;;;4293409;81;28540;-76
2022/05/01 16:31:58;;;;;;;7.50;4.65;;;;;;;;;;4298480;81;28602;-76
2022/05/01 16:38:02;;;;;;;6.03;5.12;;;;;;;;;;4294709;81;28534;-76
2022/05/01 16:44:05;;;;;;;6.90;5.08;;;;;;;;;;4281549;81;28552;-76
2022/05/01 16:50:08;;;;;;;7.08;4.75;;;;;;;;;;4300087;81;28538;-76
2022/05/01 16:56:10;;;;;;;7.28;4.55;;;;;;;;;;4296581;81;28561;-75
2022/05/01 17:02:18;;;;;;;9.83;4.80;;;;;;;;;;4276938;81;28579;-75
2022/05/01 17:08:36;;;;;;;7.65;4.50;;;;;;;;;;4297578;81;28499;-75
2022/05/01 17:14:41;;;;;;;7.78;4.42;;;;;;;;;;4291813;81;28558;-75
2022/05/01 17:20:44;;;;;;;7.25;4.90;;;;;;;;;;4308373;81;28553;-75
2022/05/01 17:26:45;;;;;;;6.45;4.33;;;;;;;;;;4302941;81;28523;-75
2022/05/01 17:32:54;;;;;;;10.45;4.62;;;;;;;;;;4291761;81;28504;-76
2022/05/01 17:38:57;;;;;;;7.85;4.80;;;;;;;;;;4294502;81;28615;-75
2022/05/01 17:44:58;;;;;;;8.25;4.80;;;;;;;;;;4293310;81;28510;-75
2022/05/01 17:51:00;;;;;;;7.78;4.55;;;;;;;;;;4293547;81;28508;-74
2022/05/01 17:57:01;;;;;;;11.08;5.40;;;;;;;;;;4296043;82;28519;-74
2022/05/01 18:03:13;;;;;;;9.35;5.90;;;;;;;;;;4302536;81;28562;-75
2022/05/01 18:15:47;;;;;;;9.60;5.62;;;;;;;;;;4279131;81;28561;-75
2022/05/01 18:21:56;;;;;;;12.40;6.95;;;;;;;;;;4291401;81;28508;-75
2022/05/01 18:28:08;;;;;;;9.58;5.70;;;;;;;;;;4310388;81;28575;-74
2022/05/01 18:34:11;;;;;;;10.70;7.65;;;;;;;;;;4304983;81;28511;-74
2022/05/01 18:40:13;;;;;;;12.82;7.15;;;;;;;;;;4290208;81;28508;-75
2022/05/01 18:46:15;;;;;;;9.90;6.92;;;;;;;;;;4280583;81;28520;-75
2022/05/01 18:52:16;;;;;;;12.55;7.40;;;;;;;;;;4291959;81;28538;-74
2022/05/01 18:58:17;;;;;;;13.65;8.60;;;;;;;;;;4289929;81;28538;-75
2022/05/01 19:04:19;;;;;;;11.38;7.20;;;;;;;;;;4288220;81;28472;-75
2022/05/01 19:10:22;;;;;;;10.53;6.60;;;;;;;;;;4293751;81;28503;-75
2022/05/01 19:16:34;;;;;;;17.82;9.65;;;;;;;;;;4293228;81;28532;-74
2022/05/01 19:22:37;;;;;;;16.37;10.00;;;;;;;;;;4293049;81;28959;-74
2022/05/01 19:28:46;;;;;;;16.60;9.73;;;;;;;;;;4287780;81;28520;-74
2022/05/01 19:34:52;;;;;;;14.60;9.43;;;;;;;;;;4299473;81;28516;-75
2022/05/01 19:40:55;;;;;;;14.63;9.13;;;;;;;;;;4297314;81;28621;-74
2022/05/01 19:53:21;;;;;;;14.23;8.70;;;;;;;;;;4270021;81;28515;-77
2022/05/01 19:59:23;;;;;;;11.48;8.05;;;;;;;;;;4302734;81;28521;-76
2022/05/01 20:05:26;;;;;;;11.30;7.33;;;;;;;;;;4310933;82;28480;-78
2022/05/01 20:11:27;;;;;;;13.10;8.43;;;;;;;;;;4271997;81;28494;-78
2022/05/01 20:17:29;;;;;;;13.38;8.43;;;;;;;;;;4292519;81;28513;-77
2022/05/01 20:23:32;;;;;;;13.30;7.72;;;;;;;;;;4298495;81;28539;-77
2022/05/01 20:29:35;;;;;;;14.38;8.18;;;;;;;;;;4301995;81;28669;-75
2022/05/01 20:35:55;;;;;;;13.80;8.40;;;;;;;;;;4309908;80;28555;-76
2022/05/01 20:42:00;;;;;;;11.65;7.60;;;;;;;;;;4301046;81;28516;-74
2022/05/01 20:48:03;;;;;;;11.12;8.05;;;;;;;;;;4300804;81;28609;-76
2022/05/01 20:54:08;;;;;;;11.38;7.87;;;;;;;;;;4301061;81;28483;-74
2022/05/01 21:00:13;;;;;;;12.73;7.50;;;;;;;;;;4301245;81;28519;-76
2022/05/01 21:06:17;;;;;;;18.50;10.35;;;;;;;;;;4300248;81;28544;-76
2022/05/01 21:12:18;;;;;;;11.95;7.85;;;;;;;;;;4301868;81;28504;-75
2022/05/01 21:18:19;;;;;;;12.47;8.13;;;;;;;;;;4304983;81;28546;-76
2022/05/01 21:24:20;;;;;;;12.93;7.53;;;;;;;;;;4304223;81;28558;-76
2022/05/01 21:36:44;;;;;;;13.05;8.80;;;;;;;;;;4292099;81;28557;-75
2022/05/01 21:42:45;;;;;;;14.30;8.00;;;;;;;;;;4296709;81;28502;-75
2022/05/01 21:48:45;;;;;;;14.85;9.95;;;;;;;;;;4297973;81;28546;-75
2022/05/01 21:54:46;;;;;;;15.88;9.00;;;;;;;;;;4289119;81;28547;-76
2022/05/01 22:00:53;;;;;;;14.58;8.98;;;;;;;;;;4290456;81;28555;-76
2022/05/01 22:06:54;;;;;;;14.07;9.73;;;;;;;;;;4298606;81;28515;-76
2022/05/01 22:12:55;;;;;;;19.20;9.73;;;;;;;;;;4298589;81;28592;-77
2022/05/01 22:18:56;;;;;;;15.80;9.95;;;;;;;;;;4282559;81;28520;-75
2022/05/01 22:24:57;;;;;;;16.97;11.10;;;;;;;;;;4293335;81;28535;-76
2022/05/01 22:30:58;;;;;;;17.90;11.28;;;;;;;;;;4295451;81;28724;-72
2022/05/01 22:43:20;;;;;;;22.62;13.15;;;;;;;;;;4297044;81;28590;-73
2022/05/01 22:49:21;;;;;;;16.32;11.22;;;;;;;;;;4295762;81;28526;-72
2022/05/01 22:55:23;;;;;;;19.32;11.83;;;;;;;;;;4291730;81;28520;-72
2022/05/01 23:01:26;;;;;;;20.37;11.70;;;;;;;;;;4290482;81;28593;-72
2022/05/01 23:07:27;;;;;;;20.90;12.07;;;;;;;;;;4294427;81;28539;-72
2022/05/01 23:13:27;;;;;;;20.00;12.00;;;;;;;;;;4292026;81;28539;-73
2022/05/01 23:19:28;;;;;;;19.30;11.85;;;;;;;;;;4293198;81;28551;-73
2022/05/01 23:25:29;;;;;;;20.27;12.45;;;;;;;;;;4297645;81;28522;-73
2022/05/01 23:31:30;;;;;;;23.52;12.88;;;;;;;;;;4295072;81;28531;-73
2022/05/01 23:37:31;;;;;;;21.10;12.45;;;;;;;;;;4287976;81;28515;-73
2022/05/01 23:43:32;;;;;;;20.20;12.37;;;;;;;;;;4286112;81;28562;-73
2022/05/01 23:49:33;;;;;;;18.37;12.15;;;;;;;;;;4284294;81;28558;-72
2022/05/01 23:55:35;;;;;;;23.27;13.40;;;;;;;;;;4281948;81;28615;-73
